« Back
NWS Peachtree City, Ga » Text Product » AHN Terminal Aerodrome Forecast


Printer-friendly Version
Current Version              Previous Versions:   1  2  3  4  5  6  7  8  9  

Terminal Aerodrome Forecast

398
FTAK31 PAJN 242334
TAFAHN
TAF
PAHN 242334Z 2500/2524 10010G20KT P6SM VCSH BKN012 OVC050
     FM251200 09012KT P6SM VCSH SCT008 OVC012
      AMD LTD TO CLD VIS AND WIND=

USA.gov is the U.S. government's official web portal to all federal, state and local government web resources and services.